createdAt,value
2022-09-07T00:01:00.763Z,4.43
2022-09-07T00:03:29.046Z,4.23
2022-09-07T00:05:57.222Z,4.67
2022-09-07T00:08:27.173Z,4.53
2022-09-07T00:10:56.915Z,4.70
2022-09-07T00:13:28.298Z,4.50
2022-09-07T00:15:56.610Z,4.53
2022-09-07T00:18:25.035Z,4.20
2022-09-07T00:20:59.435Z,5.07
2022-09-07T00:23:28.556Z,4.60
2022-09-07T00:26:00.751Z,5.20
2022-09-07T00:28:30.611Z,4.80
2022-09-07T00:30:58.948Z,5.30
2022-09-07T00:33:53.003Z,5.20
2022-09-07T00:36:21.996Z,4.80
2022-09-07T00:38:50.418Z,4.80
2022-09-07T00:41:19.554Z,4.80
2022-09-07T00:43:51.474Z,5.07
2022-09-07T00:46:21.315Z,4.60
2022-09-07T00:48:53.495Z,4.97
2022-09-07T00:51:33.246Z,4.70
2022-09-07T00:54:04.309Z,5.07
2022-09-07T00:56:34.879Z,4.83
2022-09-07T00:59:04.569Z,4.60
2022-09-07T01:01:33.579Z,5.10
2022-09-07T01:04:02.273Z,4.70
2022-09-07T01:06:32.302Z,4.90
2022-09-07T01:09:05.131Z,4.67
2022-09-07T01:11:34.990Z,6.07
2022-09-07T01:14:06.135Z,5.00
2022-09-07T01:16:45.799Z,4.90
2022-09-07T01:19:32.032Z,4.70
2022-09-07T01:22:08.648Z,4.40
2022-09-07T01:24:42.883Z,4.60
2022-09-07T01:27:55.154Z,4.63
2022-09-07T01:30:24.387Z,4.73
2022-09-07T01:33:06.612Z,4.80
2022-09-07T01:35:41.391Z,4.70
2022-09-07T01:38:13.374Z,4.77
2022-09-07T01:40:45.935Z,5.03
2022-09-07T01:43:21.430Z,4.83
2022-09-07T01:45:49.608Z,4.73
2022-09-07T01:48:19.559Z,5.10
2022-09-07T01:50:51.427Z,5.00
2022-09-07T01:53:24.634Z,4.70
2022-09-07T01:55:56.137Z,5.10
2022-09-07T01:58:29.477Z,4.73
2022-09-07T02:01:01.979Z,4.90
2022-09-07T02:03:34.903Z,4.83
2022-09-07T02:06:06.630Z,5.00
2022-09-07T02:08:37.814Z,4.47
2022-09-07T02:11:09.612Z,5.03
2022-09-07T02:13:41.454Z,4.90
2022-09-07T02:16:13.174Z,4.73
2022-09-07T02:18:45.183Z,4.83
2022-09-07T02:21:16.683Z,4.90
2022-09-07T02:23:47.950Z,4.83
2022-09-07T02:26:19.254Z,4.70
2022-09-07T02:28:48.862Z,5.20
2022-09-07T02:31:17.185Z,4.80
2022-09-07T02:33:45.355Z,4.40
2022-09-07T02:36:13.968Z,5.17
2022-09-07T02:38:42.425Z,4.80
2022-09-07T02:41:29.593Z,4.90
2022-09-07T02:43:59.358Z,4.67
2022-09-07T02:46:37.838Z,4.70
2022-09-07T02:49:10.389Z,4.63
2022-09-07T02:51:40.960Z,5.10
2022-09-07T02:54:24.514Z,4.50
2022-09-07T02:56:58.568Z,4.80
2022-09-07T02:59:41.166Z,5.00
2022-09-07T03:02:14.624Z,4.73
2022-09-07T03:04:47.150Z,4.17
2022-09-07T03:07:17.406Z,4.60
2022-09-07T03:09:48.139Z,4.50
2022-09-07T03:12:16.375Z,4.60
2022-09-07T03:14:54.960Z,5.20
2022-09-07T03:17:23.023Z,4.97
2022-09-07T03:19:51.021Z,5.07
2022-09-07T03:22:19.042Z,5.43
2022-09-07T03:24:47.099Z,4.77
2022-09-07T03:27:15.151Z,4.60
2022-09-07T03:29:43.206Z,5.77
2022-09-07T03:32:12.543Z,5.63
2022-09-07T03:34:40.631Z,5.20
2022-09-07T03:37:08.637Z,5.40
2022-09-07T03:39:36.727Z,4.87
2022-09-07T03:42:05.089Z,5.60
2022-09-07T03:44:33.542Z,4.97
2022-09-07T03:47:01.557Z,5.27
2022-09-07T03:49:30.953Z,4.40
2022-09-07T03:51:58.971Z,5.00
2022-09-07T03:54:27.090Z,5.10
2022-09-07T03:56:55.156Z,5.10
2022-09-07T03:59:23.267Z,5.23
2022-09-07T04:01:51.358Z,5.87
2022-09-07T04:04:19.524Z,5.63
2022-09-07T04:06:48.901Z,5.13
2022-09-07T04:09:16.973Z,5.60
2022-09-07T04:11:45.130Z,5.77
2022-09-07T04:14:13.440Z,5.77
2022-09-07T04:16:41.704Z,5.77
2022-09-07T04:19:09.768Z,5.60
2022-09-07T04:21:37.853Z,5.63
2022-09-07T04:24:07.469Z,5.90
2022-09-07T04:26:37.102Z,5.63
2022-09-07T04:29:06.740Z,5.80
2022-09-07T04:31:35.336Z,5.73
2022-09-07T04:34:05.537Z,5.93
2022-09-07T04:36:34.047Z,5.80
2022-09-07T04:39:05.308Z,5.53
2022-09-07T04:41:35.045Z,5.80
2022-09-07T04:44:04.642Z,6.27
2022-09-07T04:46:35.170Z,5.70
2022-09-07T04:49:05.046Z,5.60
2022-09-07T04:51:33.620Z,6.40
2022-09-07T04:54:03.884Z,6.60
2022-09-07T04:56:32.655Z,5.70
2022-09-07T04:59:02.871Z,6.17
2022-09-07T05:01:31.139Z,5.90
2022-09-07T05:04:00.920Z,6.00
2022-09-07T05:06:29.051Z,6.37
2022-09-07T05:08:57.225Z,6.50
2022-09-07T05:11:29.104Z,6.77
2022-09-07T05:13:57.589Z,6.27
2022-09-07T05:16:28.073Z,6.70
2022-09-07T05:18:58.138Z,6.50
2022-09-07T05:21:28.155Z,6.57
2022-09-07T05:23:57.421Z,6.70
2022-09-07T05:26:27.750Z,6.30
2022-09-07T05:31:45.638Z,6.40
2022-09-07T05:34:29.994Z,5.73
2022-09-07T05:36:58.666Z,6.20
2022-09-07T05:39:27.181Z,5.47
2022-09-07T05:41:55.488Z,6.43
2022-09-07T05:47:13.917Z,6.73
2022-09-07T05:49:41.955Z,6.00
2022-09-07T05:52:14.449Z,6.27
2022-09-07T05:54:42.505Z,6.07
2022-09-07T05:57:12.638Z,6.07
2022-09-07T05:59:40.852Z,6.77
2022-09-07T06:02:09.040Z,6.13
2022-09-07T06:04:39.686Z,6.80
2022-09-07T06:07:21.636Z,5.97
2022-09-07T06:12:39.329Z,6.70
2022-09-07T06:15:08.766Z,5.90
2022-09-07T06:17:36.870Z,6.17
2022-09-07T06:20:07.876Z,5.90
2022-09-07T06:22:37.375Z,6.47
2022-09-07T06:25:06.149Z,6.97
2022-09-07T06:27:34.683Z,5.80
2022-09-07T06:30:02.741Z,6.67
2022-09-07T06:32:46.373Z,6.63
2022-09-07T06:35:16.683Z,6.27
2022-09-07T06:37:44.927Z,5.90
2022-09-07T06:40:13.243Z,7.30
2022-09-07T06:42:41.356Z,7.03
2022-09-07T06:45:11.645Z,6.50
2022-09-07T06:47:40.589Z,5.80
2022-09-07T06:50:10.013Z,6.37
2022-09-07T06:55:29.270Z,6.20
2022-09-07T06:57:57.331Z,6.40
2022-09-07T07:00:25.689Z,7.30
2022-09-07T07:02:53.828Z,6.23
2022-09-07T07:05:22.003Z,6.60
2022-09-07T07:07:51.425Z,6.87
2022-09-07T07:10:24.501Z,6.70
2022-09-07T07:12:57.133Z,6.83
2022-09-07T07:15:26.815Z,6.40
2022-09-07T07:18:00.305Z,6.30
2022-09-07T07:20:30.560Z,6.93
2022-09-07T07:22:59.986Z,6.80
2022-09-07T07:25:28.072Z,6.67
2022-09-07T07:27:57.509Z,6.90
2022-09-07T07:30:26.201Z,7.40
2022-09-07T07:32:57.621Z,7.33
2022-09-07T07:35:26.754Z,7.40
2022-09-07T07:43:35.113Z,8.07
2022-09-07T07:46:05.610Z,7.80
2022-09-07T07:48:35.883Z,9.10
2022-09-07T07:51:09.825Z,8.20
2022-09-07T07:53:42.272Z,9.77
2022-09-07T07:56:12.798Z,9.80
2022-09-07T07:58:40.918Z,9.13
2022-09-07T08:01:11.435Z,9.67
2022-09-07T08:03:41.238Z,9.43
2022-09-07T08:06:11.226Z,9.53
2022-09-07T08:08:39.351Z,9.90
2022-09-07T08:11:09.099Z,9.27
2022-09-07T08:13:40.518Z,9.17
2022-09-07T08:16:09.791Z,8.70
2022-09-07T08:18:38.838Z,10.90
2022-09-07T08:21:08.493Z,8.27
2022-09-07T08:23:37.217Z,9.90
2022-09-07T08:26:05.564Z,8.53
2022-09-07T08:28:36.905Z,9.30
2022-09-07T08:31:07.832Z,8.43
2022-09-07T08:33:37.656Z,10.50
2022-09-07T08:36:07.711Z,8.90
2022-09-07T08:38:37.224Z,9.27
2022-09-07T08:41:24.039Z,9.70
2022-09-07T08:43:54.942Z,10.40
2022-09-07T08:46:29.791Z,8.40
2022-09-07T08:48:59.719Z,8.77
2022-09-07T08:51:34.054Z,9.70
2022-09-07T08:54:03.049Z,9.17
2022-09-07T08:56:33.928Z,9.27
2022-09-07T08:59:04.467Z,9.07
2022-09-07T09:01:38.812Z,16.45
2022-09-07T09:04:16.716Z,9.27
2022-09-07T09:06:50.833Z,8.77
2022-09-07T09:09:23.339Z,8.40
2022-09-07T09:11:55.820Z,8.97
2022-09-07T09:17:09.545Z,8.00
2022-09-07T09:19:48.956Z,7.87
2022-09-07T09:22:18.957Z,7.17
2022-09-07T09:24:49.774Z,7.03
2022-09-07T09:27:17.967Z,6.20
2022-09-07T09:29:45.982Z,6.30
2022-09-07T09:32:35.997Z,6.80
2022-09-07T09:35:06.539Z,6.50
2022-09-07T09:37:36.501Z,6.27
2022-09-07T09:40:06.471Z,5.93
2022-09-07T09:42:35.495Z,5.40
2022-09-07T09:45:05.700Z,4.97
2022-09-07T09:47:36.995Z,6.30
2022-09-07T09:50:07.966Z,5.10
2022-09-07T09:52:47.778Z,5.27
2022-09-07T09:55:35.879Z,5.37
2022-09-07T10:06:21.784Z,5.40
2022-09-07T10:08:57.115Z,4.93
2022-09-07T10:14:34.140Z,4.60
2022-09-07T10:17:02.823Z,5.20
2022-09-07T10:19:35.087Z,5.30
2022-09-07T10:22:05.057Z,5.23
2022-09-07T10:24:37.322Z,5.37
2022-09-07T10:27:20.449Z,5.13
2022-09-07T10:29:49.178Z,4.60
2022-09-07T10:32:23.821Z,4.80
2022-09-07T10:35:07.806Z,4.70
2022-09-07T10:37:44.321Z,5.10
2022-09-07T10:40:21.916Z,4.73
2022-09-07T10:45:55.394Z,3.83
2022-09-07T10:48:28.763Z,4.47
2022-09-07T10:51:07.368Z,4.40
2022-09-07T10:53:44.637Z,4.23
2022-09-07T10:56:16.660Z,4.33
2022-09-07T10:59:08.883Z,3.70
2022-09-07T11:01:45.399Z,3.87
2022-09-07T11:04:27.337Z,4.10
2022-09-07T11:07:03.004Z,3.30
2022-09-07T11:09:39.961Z,3.90
2022-09-07T11:12:11.586Z,3.80
2022-09-07T11:14:42.925Z,3.63
2022-09-07T11:17:16.462Z,4.60
2022-09-07T11:19:50.275Z,4.60
2022-09-07T11:22:33.420Z,3.80
2022-09-07T11:27:57.696Z,4.10
2022-09-07T11:30:29.869Z,4.07
2022-09-07T11:33:03.207Z,3.67
2022-09-07T11:35:42.072Z,3.60
2022-09-07T11:38:25.425Z,3.60
2022-09-07T11:41:18.356Z,4.23
2022-09-07T11:43:48.345Z,4.20
2022-09-07T11:46:19.090Z,3.70
2022-09-07T11:48:51.513Z,3.90
2022-09-07T11:51:22.629Z,4.17
2022-09-07T11:53:55.300Z,3.90
2022-09-07T11:56:27.909Z,3.70
2022-09-07T11:59:16.736Z,4.20
2022-09-07T12:01:53.291Z,3.70
2022-09-07T12:04:36.502Z,4.27
2022-09-07T12:07:16.859Z,3.80
2022-09-07T12:09:59.599Z,3.60
2022-09-07T12:12:51.715Z,3.63
2022-09-07T12:15:24.861Z,4.20
2022-09-07T12:18:03.294Z,3.83
2022-09-07T12:20:40.933Z,3.83
2022-09-07T12:23:22.043Z,4.10
2022-09-07T12:25:53.629Z,3.53
2022-09-07T12:28:55.229Z,4.50
2022-09-07T12:31:57.281Z,3.43
2022-09-07T12:34:54.938Z,3.90
2022-09-07T12:37:41.015Z,3.60
2022-09-07T12:40:57.695Z,3.90
2022-09-07T12:44:11.135Z,3.70
2022-09-07T12:46:56.203Z,3.53
2022-09-07T12:49:42.272Z,4.00
2022-09-07T12:52:36.940Z,3.10
2022-09-07T12:55:27.232Z,3.50
2022-09-07T12:58:03.807Z,4.17
2022-09-07T13:00:40.484Z,3.50
2022-09-07T13:06:19.295Z,3.53
2022-09-07T13:09:08.793Z,3.30
2022-09-07T13:11:38.640Z,3.30
2022-09-07T13:14:09.455Z,3.27
2022-09-07T13:20:09.006Z,3.70
2022-09-07T13:22:56.399Z,3.40
2022-09-07T13:25:47.132Z,3.60
2022-09-07T13:28:23.447Z,3.63
2022-09-07T13:31:00.893Z,3.50
2022-09-07T13:33:57.285Z,3.20
2022-09-07T13:36:38.754Z,3.20
2022-09-07T13:39:09.870Z,3.50
2022-09-07T13:41:42.425Z,3.30
2022-09-07T13:44:23.707Z,3.40
2022-09-07T13:47:01.488Z,3.30
2022-09-07T13:49:39.647Z,3.07
2022-09-07T13:52:14.600Z,3.17
2022-09-07T13:55:04.943Z,3.17
2022-09-07T13:57:41.978Z,3.20
2022-09-07T14:00:15.007Z,3.30
2022-09-07T14:02:43.136Z,3.30
2022-09-07T14:05:13.402Z,3.40
2022-09-07T14:07:46.628Z,3.07
2022-09-07T14:10:19.432Z,3.07
2022-09-07T14:12:50.477Z,3.30
2022-09-07T14:15:22.208Z,3.50
2022-09-07T14:17:52.014Z,3.53
2022-09-07T14:20:21.731Z,3.30
2022-09-07T14:22:53.470Z,3.40
2022-09-07T14:25:22.895Z,2.87
2022-09-07T14:27:51.230Z,3.23
2022-09-07T14:30:25.748Z,3.27
2022-09-07T14:32:55.298Z,3.27
2022-09-07T14:35:26.752Z,3.17
2022-09-07T14:37:55.147Z,3.00
2022-09-07T14:40:24.737Z,3.10
2022-09-07T14:42:54.459Z,3.10
2022-09-07T14:45:33.537Z,3.27
2022-09-07T14:48:01.691Z,3.10
2022-09-07T14:50:33.971Z,3.10
2022-09-07T14:56:02.833Z,3.00
2022-09-07T14:58:32.567Z,3.33
2022-09-07T15:04:04.144Z,3.40
2022-09-07T15:09:30.811Z,3.03
2022-09-07T15:12:06.529Z,3.50
2022-09-07T15:14:34.542Z,3.17
2022-09-07T15:19:51.802Z,3.30
2022-09-07T15:22:22.104Z,3.00
2022-09-07T15:24:50.232Z,2.70
2022-09-07T15:27:22.401Z,3.03
2022-09-07T15:29:50.407Z,2.90
2022-09-07T15:32:19.135Z,2.97
2022-09-07T15:34:47.279Z,2.93
2022-09-07T15:40:15.410Z,2.90
2022-09-07T15:45:31.509Z,2.80
2022-09-07T15:47:59.517Z,3.07
2022-09-07T15:50:27.630Z,3.57
2022-09-07T15:52:55.603Z,3.53
2022-09-07T15:55:25.383Z,3.80
2022-09-07T15:58:08.852Z,2.97
2022-09-07T16:00:39.233Z,3.27
2022-09-07T16:03:08.395Z,3.00
2022-09-07T16:05:39.767Z,3.03
2022-09-07T16:11:10.166Z,2.80
2022-09-07T16:13:40.617Z,3.10
2022-09-07T16:16:08.975Z,2.87
2022-09-07T16:18:37.706Z,2.90
2022-09-07T16:21:11.734Z,3.00
2022-09-07T16:23:41.831Z,3.10
2022-09-07T16:26:12.218Z,3.50
2022-09-07T16:28:41.771Z,3.47
2022-09-07T16:31:14.030Z,4.00
2022-09-07T16:33:42.365Z,3.30
2022-09-07T16:36:12.980Z,3.20
2022-09-07T16:38:45.626Z,2.90
2022-09-07T16:41:16.936Z,3.20
2022-09-07T16:43:46.046Z,2.80
2022-09-07T16:46:18.819Z,3.13
2022-09-07T16:48:46.934Z,3.10
2022-09-07T16:51:16.412Z,3.30
2022-09-07T16:53:44.589Z,3.23
2022-09-07T16:56:13.876Z,3.40
2022-09-07T16:58:44.559Z,3.27
2022-09-07T17:01:15.152Z,3.17
2022-09-07T17:03:43.821Z,3.30
2022-09-07T17:06:13.794Z,3.23
2022-09-07T17:08:42.867Z,3.50
2022-09-07T17:11:12.786Z,3.47
2022-09-07T17:13:43.202Z,3.40
2022-09-07T17:16:13.123Z,3.10
2022-09-07T17:21:31.278Z,2.93
2022-09-07T17:24:01.642Z,3.60
2022-09-07T17:26:32.351Z,2.87
2022-09-07T17:29:01.767Z,3.20
2022-09-07T17:34:20.199Z,3.20
2022-09-07T17:36:48.516Z,3.10
2022-09-07T17:39:18.183Z,3.00
2022-09-07T17:41:47.328Z,3.40
2022-09-07T17:44:17.018Z,3.50
2022-09-07T17:46:45.293Z,3.13
2022-09-07T17:49:16.208Z,3.43
2022-09-07T17:51:44.887Z,4.00
2022-09-07T17:54:14.954Z,4.67
2022-09-07T17:56:43.460Z,3.93
2022-09-07T18:02:02.567Z,2.97
2022-09-07T18:04:30.612Z,3.10
2022-09-07T18:06:58.665Z,3.30
2022-09-07T18:09:26.635Z,3.50
2022-09-07T18:11:54.685Z,4.07
2022-09-07T18:14:22.740Z,3.50
2022-09-07T18:16:52.588Z,3.20
2022-09-07T18:19:22.007Z,3.50
2022-09-07T18:21:50.617Z,3.80
2022-09-07T18:24:21.852Z,3.47
2022-09-07T18:26:52.219Z,3.40
2022-09-07T18:29:37.566Z,3.50
2022-09-07T18:32:08.948Z,3.83
2022-09-07T18:34:41.443Z,3.43
2022-09-07T18:37:12.198Z,3.87
2022-09-07T18:39:40.706Z,4.40
2022-09-07T18:42:09.294Z,3.87
2022-09-07T18:47:28.785Z,3.60
2022-09-07T18:49:59.072Z,4.87
2022-09-07T18:55:18.408Z,4.30
2022-09-07T18:57:46.466Z,3.47
2022-09-07T19:00:17.902Z,3.60
2022-09-07T19:02:50.465Z,3.63
2022-09-07T19:08:08.587Z,3.83
2022-09-07T19:10:37.684Z,3.77
2022-09-07T19:13:06.486Z,3.77
2022-09-07T19:15:37.482Z,3.80
2022-09-07T19:18:07.089Z,3.60
2022-09-07T19:20:36.941Z,3.77
2022-09-07T19:23:05.345Z,3.50
2022-09-07T19:25:33.325Z,3.57
2022-09-07T19:28:01.404Z,4.20
2022-09-07T19:30:30.455Z,4.00
2022-09-07T19:33:03.354Z,3.30
2022-09-07T19:35:37.028Z,3.70
2022-09-07T19:38:05.444Z,3.67
2022-09-07T19:40:33.586Z,3.90
2022-09-07T19:43:02.019Z,3.70
2022-09-07T19:45:30.103Z,3.90
2022-09-07T19:47:58.475Z,3.60
2022-09-07T19:50:26.568Z,3.60
2022-09-07T19:52:56.071Z,3.30
2022-09-07T19:55:24.176Z,3.47
2022-09-07T19:57:52.614Z,3.83
2022-09-07T20:00:22.695Z,3.70
2022-09-07T20:02:51.270Z,3.77
2022-09-07T20:05:19.638Z,3.93
2022-09-07T20:07:47.645Z,4.10
2022-09-07T20:10:17.482Z,3.93
2022-09-07T20:12:45.617Z,4.07
2022-09-07T20:15:13.725Z,4.03
2022-09-07T20:17:41.754Z,4.80
2022-09-07T20:20:10.578Z,4.53
2022-09-07T20:22:38.610Z,4.50
2022-09-07T20:25:11.340Z,4.70
2022-09-07T20:27:42.363Z,4.27
2022-09-07T20:30:11.569Z,4.70
2022-09-07T20:32:39.544Z,4.57
2022-09-07T20:35:08.021Z,4.77
2022-09-07T20:37:36.069Z,4.40
2022-09-07T20:40:06.267Z,4.70
2022-09-07T20:42:34.347Z,4.50
2022-09-07T20:45:03.718Z,4.60
2022-09-07T20:47:31.706Z,4.40
2022-09-07T20:49:59.663Z,4.40
2022-09-07T20:52:27.912Z,4.30
2022-09-07T20:54:55.983Z,4.20
2022-09-07T20:57:24.740Z,4.60
2022-09-07T20:59:52.781Z,4.10
2022-09-07T21:02:22.168Z,4.20
2022-09-07T21:04:50.244Z,3.73
2022-09-07T21:07:18.233Z,4.67
2022-09-07T21:09:46.296Z,3.90
2022-09-07T21:12:14.288Z,4.50
2022-09-07T21:14:42.311Z,4.33
2022-09-07T21:17:10.263Z,4.53
2022-09-07T21:19:39.636Z,4.40
2022-09-07T21:22:07.657Z,4.77
2022-09-07T21:24:35.623Z,3.87
2022-09-07T21:27:03.592Z,4.50
2022-09-07T21:29:31.569Z,4.30
2022-09-07T21:31:59.570Z,5.40
2022-09-07T21:34:27.657Z,4.70
2022-09-07T21:36:57.121Z,4.30
2022-09-07T21:39:25.127Z,4.67
2022-09-07T21:41:53.111Z,4.80
2022-09-07T21:44:21.349Z,4.57
2022-09-07T21:46:49.465Z,4.33
2022-09-07T21:49:17.500Z,4.40
2022-09-07T21:51:45.466Z,4.57
2022-09-07T21:54:14.796Z,4.40
2022-09-07T21:56:46.512Z,4.60
2022-09-07T21:59:15.177Z,4.77
2022-09-07T22:01:43.226Z,4.43
2022-09-07T22:04:12.086Z,4.70
2022-09-07T22:06:41.039Z,4.97
2022-09-07T22:09:09.040Z,4.13
2022-09-07T22:11:38.364Z,4.50
2022-09-07T22:14:06.897Z,4.90
2022-09-07T22:16:35.719Z,4.70
2022-09-07T22:19:04.102Z,4.70
2022-09-07T22:21:32.507Z,5.10
2022-09-07T22:24:02.859Z,6.17
2022-09-07T22:26:32.975Z,4.77
2022-09-07T22:29:02.371Z,5.33
2022-09-07T22:31:31.946Z,4.93
2022-09-07T22:34:00.811Z,5.47
2022-09-07T22:36:31.119Z,5.10
2022-09-07T22:39:00.564Z,5.60
2022-09-07T22:41:30.364Z,5.33
2022-09-07T22:43:58.949Z,5.30
2022-09-07T22:46:30.520Z,4.80
2022-09-07T22:48:59.811Z,4.87
2022-09-07T22:51:28.028Z,4.83
2022-09-07T22:53:56.513Z,4.80
2022-09-07T22:56:26.231Z,4.90
2022-09-07T22:58:56.433Z,4.93
2022-09-07T23:01:24.704Z,4.50
2022-09-07T23:03:54.456Z,4.80
2022-09-07T23:06:23.498Z,4.93
2022-09-07T23:08:52.058Z,4.60
2022-09-07T23:11:20.754Z,4.50
2022-09-07T23:13:51.348Z,5.40
2022-09-07T23:16:19.514Z,4.77
2022-09-07T23:18:47.849Z,4.30
2022-09-07T23:21:17.550Z,5.10
2022-09-07T23:23:49.930Z,5.40
2022-09-07T23:26:18.054Z,4.50
2022-09-07T23:28:45.983Z,5.40
2022-09-07T23:31:14.067Z,4.70
2022-09-07T23:33:42.091Z,4.77
2022-09-07T23:36:10.816Z,5.00
2022-09-07T23:38:40.184Z,4.60
2022-09-07T23:41:08.250Z,4.07
2022-09-07T23:43:36.534Z,4.50
2022-09-07T23:46:04.620Z,4.77
2022-09-07T23:48:32.656Z,4.00
2022-09-07T23:51:00.616Z,4.67
2022-09-07T23:53:28.695Z,4.27
2022-09-07T23:55:58.086Z,4.60
2022-09-07T23:58:26.046Z,3.83
